sensor_id;sensor_type;location;lat;lon;timestamp;pressure;altitude;pressure_sealevel;temperature;humidity
46448;BME280;32145;50.390;30.778;2024-03-02T00:02:15;100660.84;;;0.72;71.48
46448;BME280;32145;50.390;30.778;2024-03-02T00:05:11;100660.00;;;0.71;71.76
46448;BME280;32145;50.390;30.778;2024-03-02T00:08:06;100650.47;;;0.69;71.52
46448;BME280;32145;50.390;30.778;2024-03-02T00:11:02;100651.59;;;0.66;71.64
46448;BME280;32145;50.390;30.778;2024-03-02T00:13:58;100654.41;;;0.64;71.54
46448;BME280;32145;50.390;30.778;2024-03-02T00:16:55;100656.38;;;0.62;71.76
46448;BME280;32145;50.390;30.778;2024-03-02T00:19:51;100659.50;;;0.58;72.01
46448;BME280;32145;50.390;30.778;2024-03-02T00:22:48;100651.09;;;0.53;71.98
46448;BME280;32145;50.390;30.778;2024-03-02T00:25:47;100655.91;;;0.49;71.89
46448;BME280;32145;50.390;30.778;2024-03-02T00:28:44;100652.13;;;0.42;72.17
46448;BME280;32145;50.390;30.778;2024-03-02T00:31:41;100653.41;;;0.37;72.02
46448;BME280;32145;50.390;30.778;2024-03-02T00:34:38;100643.75;;;0.36;72.02
46448;BME280;32145;50.390;30.778;2024-03-02T00:37:34;100646.41;;;0.36;72.18
46448;BME280;32145;50.390;30.778;2024-03-02T00:40:31;100649.66;;;0.30;72.31
46448;BME280;32145;50.390;30.778;2024-03-02T00:43:41;100654.44;;;0.27;72.54
46448;BME280;32145;50.390;30.778;2024-03-02T00:46:37;100655.59;;;0.24;72.61
46448;BME280;32145;50.390;30.778;2024-03-02T00:49:35;100644.09;;;0.14;72.23
46448;BME280;32145;50.390;30.778;2024-03-02T00:52:32;100637.53;;;0.08;72.35
46448;BME280;32145;50.390;30.778;2024-03-02T00:55:28;100646.94;;;0.02;72.38
46448;BME280;32145;50.390;30.778;2024-03-02T00:58:24;100643.19;;;-0.05;72.28
46448;BME280;32145;50.390;30.778;2024-03-02T01:01:20;100648.25;;;-0.12;72.55
46448;BME280;32145;50.390;30.778;2024-03-02T01:04:17;100646.00;;;-0.17;72.70
46448;BME280;32145;50.390;30.778;2024-03-02T01:07:14;100644.63;;;-0.21;72.63
46448;BME280;32145;50.390;30.778;2024-03-02T01:10:11;100635.50;;;-0.28;72.23
46448;BME280;32145;50.390;30.778;2024-03-02T01:13:08;100639.75;;;-0.35;72.51
46448;BME280;32145;50.390;30.778;2024-03-02T01:16:04;100643.81;;;-0.41;72.51
46448;BME280;32145;50.390;30.778;2024-03-02T01:19:01;100635.53;;;-0.48;72.73
46448;BME280;32145;50.390;30.778;2024-03-02T01:21:57;100633.31;;;-0.53;72.37
46448;BME280;32145;50.390;30.778;2024-03-02T01:24:55;100640.75;;;-0.56;72.81
46448;BME280;32145;50.390;30.778;2024-03-02T01:27:51;100640.31;;;-0.61;72.66
46448;BME280;32145;50.390;30.778;2024-03-02T01:30:47;100643.41;;;-0.66;72.65
46448;BME280;32145;50.390;30.778;2024-03-02T01:33:43;100635.41;;;-0.66;72.92
46448;BME280;32145;50.390;30.778;2024-03-02T01:36:40;100631.09;;;-0.67;73.24
46448;BME280;32145;50.390;30.778;2024-03-02T01:39:34;100625.22;;;-0.71;73.03
46448;BME280;32145;50.390;30.778;2024-03-02T01:42:30;100633.06;;;-0.69;73.32
46448;BME280;32145;50.390;30.778;2024-03-02T01:45:24;100640.47;;;-0.73;73.58
46448;BME280;32145;50.390;30.778;2024-03-02T01:48:18;100642.72;;;-0.78;73.20
46448;BME280;32145;50.390;30.778;2024-03-02T01:51:12;100638.53;;;-0.81;73.30
46448;BME280;32145;50.390;30.778;2024-03-02T01:54:06;100630.69;;;-0.82;73.56
46448;BME280;32145;50.390;30.778;2024-03-02T01:57:03;100634.31;;;-0.83;73.59
46448;BME280;32145;50.390;30.778;2024-03-02T02:00:01;100633.34;;;-0.82;73.82
46448;BME280;32145;50.390;30.778;2024-03-02T02:02:56;100638.38;;;-0.89;73.63
46448;BME280;32145;50.390;30.778;2024-03-02T02:05:50;100635.41;;;-0.96;73.70
46448;BME280;32145;50.390;30.778;2024-03-02T02:08:44;100632.06;;;-0.98;73.78
46448;BME280;32145;50.390;30.778;2024-03-02T02:11:39;100636.53;;;-0.98;73.67
46448;BME280;32145;50.390;30.778;2024-03-02T02:14:33;100631.47;;;-1.01;73.94
46448;BME280;32145;50.390;30.778;2024-03-02T02:17:29;100623.94;;;-1.06;73.96
46448;BME280;32145;50.390;30.778;2024-03-02T02:20:25;100631.19;;;-1.08;74.06
46448;BME280;32145;50.390;30.778;2024-03-02T02:23:23;100632.06;;;-1.08;73.86
46448;BME280;32145;50.390;30.778;2024-03-02T02:26:19;100623.22;;;-1.08;73.87
46448;BME280;32145;50.390;30.778;2024-03-02T02:29:14;100631.63;;;-1.13;73.95
46448;BME280;32145;50.390;30.778;2024-03-02T02:32:08;100639.03;;;-1.17;74.19
46448;BME280;32145;50.390;30.778;2024-03-02T02:35:06;100633.03;;;-1.19;74.33
46448;BME280;32145;50.390;30.778;2024-03-02T02:38:03;100641.00;;;-1.19;73.87
46448;BME280;32145;50.390;30.778;2024-03-02T02:41:00;100631.63;;;-1.23;73.94
46448;BME280;32145;50.390;30.778;2024-03-02T02:43:55;100630.22;;;-1.27;74.19
46448;BME280;32145;50.390;30.778;2024-03-02T02:46:49;100628.50;;;-1.28;73.83
46448;BME280;32145;50.390;30.778;2024-03-02T02:49:43;100625.16;;;-1.30;74.31
46448;BME280;32145;50.390;30.778;2024-03-02T02:52:39;100625.16;;;-1.30;74.35
46448;BME280;32145;50.390;30.778;2024-03-02T02:55:36;100628.81;;;-1.31;74.26
46448;BME280;32145;50.390;30.778;2024-03-02T02:58:33;100634.13;;;-1.31;74.20
46448;BME280;32145;50.390;30.778;2024-03-02T03:01:29;100630.75;;;-1.33;74.28
46448;BME280;32145;50.390;30.778;2024-03-02T03:04:23;100632.56;;;-1.34;74.37
46448;BME280;32145;50.390;30.778;2024-03-02T03:07:18;100637.88;;;-1.34;74.52
46448;BME280;32145;50.390;30.778;2024-03-02T03:10:14;100640.66;;;-1.35;75.06
46448;BME280;32145;50.390;30.778;2024-03-02T03:13:10;100639.00;;;-1.36;74.78
46448;BME280;32145;50.390;30.778;2024-03-02T03:16:08;100643.63;;;-1.38;74.78
46448;BME280;32145;50.390;30.778;2024-03-02T03:19:04;100637.31;;;-1.37;74.68
46448;BME280;32145;50.390;30.778;2024-03-02T03:22:01;100638.19;;;-1.37;75.09
46448;BME280;32145;50.390;30.778;2024-03-02T03:24:55;100636.22;;;-1.35;74.73
46448;BME280;32145;50.390;30.778;2024-03-02T03:27:49;100631.47;;;-1.31;75.11
46448;BME280;32145;50.390;30.778;2024-03-02T03:30:44;100630.47;;;-1.30;75.24
46448;BME280;32145;50.390;30.778;2024-03-02T03:33:39;100625.16;;;-1.30;75.34
46448;BME280;32145;50.390;30.778;2024-03-02T03:36:36;100625.16;;;-1.30;75.31
46448;BME280;32145;50.390;30.778;2024-03-02T03:39:34;100621.66;;;-1.31;75.25
46448;BME280;32145;50.390;30.778;2024-03-02T03:42:30;100615.50;;;-1.31;75.62
46448;BME280;32145;50.390;30.778;2024-03-02T03:45:24;100617.19;;;-1.30;75.36
46448;BME280;32145;50.390;30.778;2024-03-02T03:48:19;100621.38;;;-1.27;75.39
46448;BME280;32145;50.390;30.778;2024-03-02T03:51:14;100614.94;;;-1.25;75.52
46448;BME280;32145;50.390;30.778;2024-03-02T03:54:09;100618.59;;;-1.26;75.44
46448;BME280;32145;50.390;30.778;2024-03-02T03:57:05;100618.59;;;-1.26;75.20
46448;BME280;32145;50.390;30.778;2024-03-02T04:00:02;100615.22;;;-1.28;75.38
46448;BME280;32145;50.390;30.778;2024-03-02T04:02:59;100613.41;;;-1.27;75.76
46448;BME280;32145;50.390;30.778;2024-03-02T04:05:55;100607.53;;;-1.31;75.29
46448;BME280;32145;50.390;30.778;2024-03-02T04:08:53;100609.88;;;-1.28;75.82
46448;BME280;32145;50.390;30.778;2024-03-02T04:11:49;100609.88;;;-1.28;75.45
46448;BME280;32145;50.390;30.778;2024-03-02T04:14:45;100609.88;;;-1.28;76.06
46448;BME280;32145;50.390;30.778;2024-03-02T04:17:42;100615.22;;;-1.28;76.26
46448;BME280;32145;50.390;30.778;2024-03-02T04:20:38;100612.28;;;-1.25;76.42
46448;BME280;32145;50.390;30.778;2024-03-02T04:23:34;100605.97;;;-1.24;76.18
46448;BME280;32145;50.390;30.778;2024-03-02T04:26:32;100604.31;;;-1.25;76.41
46448;BME280;32145;50.390;30.778;2024-03-02T04:29:27;100607.94;;;-1.26;76.01
46448;BME280;32145;50.390;30.778;2024-03-02T04:32:21;100607.94;;;-1.26;76.46
46448;BME280;32145;50.390;30.778;2024-03-02T04:35:15;100615.22;;;-1.28;76.50
46448;BME280;32145;50.390;30.778;2024-03-02T04:38:09;100614.53;;;-1.30;76.28
46448;BME280;32145;50.390;30.778;2024-03-02T04:41:04;100614.53;;;-1.30;76.39
46448;BME280;32145;50.390;30.778;2024-03-02T04:44:00;100616.19;;;-1.29;76.49
46448;BME280;32145;50.390;30.778;2024-03-02T04:46:56;100613.41;;;-1.27;76.40
46448;BME280;32145;50.390;30.778;2024-03-02T04:49:53;100617.59;;;-1.25;76.97
46448;BME280;32145;50.390;30.778;2024-03-02T04:52:49;100611.28;;;-1.24;76.79
46448;BME280;32145;50.390;30.778;2024-03-02T04:55:46;100610.34;;;-1.23;76.80
46448;BME280;32145;50.390;30.778;2024-03-02T04:58:42;100610.03;;;-1.20;76.94
46448;BME280;32145;50.390;30.778;2024-03-02T05:01:39;100605.44;;;-1.18;77.06
46448;BME280;32145;50.390;30.778;2024-03-02T05:04:36;100601.78;;;-1.17;76.96
46448;BME280;32145;50.390;30.778;2024-03-02T05:07:32;100612.16;;;-1.13;76.78
46448;BME280;32145;50.390;30.778;2024-03-02T05:10:29;100617.06;;;-1.09;77.02
46448;BME280;32145;50.390;30.778;2024-03-02T05:13:25;100613.28;;;-1.06;77.11
46448;BME280;32145;50.390;30.778;2024-03-02T05:16:21;100609.38;;;-1.02;76.73
46448;BME280;32145;50.390;30.778;2024-03-02T05:19:19;100615.81;;;-0.95;77.09
46448;BME280;32145;50.390;30.778;2024-03-02T05:22:15;100613.56;;;-0.89;76.97
46448;BME280;32145;50.390;30.778;2024-03-02T05:25:12;100612.16;;;-0.84;76.83
46448;BME280;32145;50.390;30.778;2024-03-02T05:28:08;100617.78;;;-0.77;76.56
46448;BME280;32145;50.390;30.778;2024-03-02T05:31:04;100612.84;;;-0.72;76.57
46448;BME280;32145;50.390;30.778;2024-03-02T05:34:01;100616.38;;;-0.61;76.70
46448;BME280;32145;50.390;30.778;2024-03-02T05:36:56;100613.69;;;-0.52;76.76
46448;BME280;32145;50.390;30.778;2024-03-02T05:39:50;100611.16;;;-0.43;76.70
46448;BME280;32145;50.390;30.778;2024-03-02T05:42:45;100616.44;;;-0.33;76.63
46448;BME280;32145;50.390;30.778;2024-03-02T05:45:39;100616.28;;;-0.22;76.57
46448;BME280;32145;50.390;30.778;2024-03-02T05:48:33;100610.94;;;-0.12;76.47
46448;BME280;32145;50.390;30.778;2024-03-02T05:51:28;100603.91;;;-0.03;76.37
46448;BME280;32145;50.390;30.778;2024-03-02T05:54:23;100614.38;;;0.08;75.90
46448;BME280;32145;50.390;30.778;2024-03-02T05:57:17;100617.84;;;0.19;75.86
46448;BME280;32145;50.390;30.778;2024-03-02T06:00:12;100614.44;;;0.27;75.82
46448;BME280;32145;50.390;30.778;2024-03-02T06:03:07;100614.41;;;0.36;75.62
46448;BME280;32145;50.390;30.778;2024-03-02T06:06:01;100611.81;;;0.45;75.33
46448;BME280;32145;50.390;30.778;2024-03-02T06:08:56;100612.06;;;0.51;75.11
46448;BME280;32145;50.390;30.778;2024-03-02T06:11:51;100620.16;;;0.60;75.12
46448;BME280;32145;50.390;30.778;2024-03-02T06:14:45;100626.44;;;0.69;74.90
46448;BME280;32145;50.390;30.778;2024-03-02T06:17:40;100621.19;;;0.77;74.95
46448;BME280;32145;50.390;30.778;2024-03-02T06:20:34;100622.94;;;0.86;74.81
46448;BME280;32145;50.390;30.778;2024-03-02T06:23:29;100621.34;;;0.94;74.20
46448;BME280;32145;50.390;30.778;2024-03-02T06:26:23;100627.06;;;0.99;73.91
46448;BME280;32145;50.390;30.778;2024-03-02T06:29:19;100631.66;;;1.07;73.88
46448;BME280;32145;50.390;30.778;2024-03-02T06:32:15;100631.88;;;1.13;73.77
46448;BME280;32145;50.390;30.778;2024-03-02T06:35:12;100623.94;;;1.22;73.40
46448;BME280;32145;50.390;30.778;2024-03-02T06:38:06;100619.81;;;1.27;73.27
46448;BME280;32145;50.390;30.778;2024-03-02T06:41:00;100620.72;;;1.36;73.52
46448;BME280;32145;50.390;30.778;2024-03-02T06:43:54;100626.66;;;1.48;73.00
46448;BME280;32145;50.390;30.778;2024-03-02T06:46:50;100625.59;;;1.59;72.96
46448;BME280;32145;50.390;30.778;2024-03-02T06:49:44;100623.50;;;1.71;72.66
46448;BME280;32145;50.390;30.778;2024-03-02T06:52:39;100625.41;;;1.79;72.44
46448;BME280;32145;50.390;30.778;2024-03-02T06:55:33;100625.44;;;1.87;72.21
46448;BME280;32145;50.390;30.778;2024-03-02T06:58:27;100622.66;;;1.97;72.22
46448;BME280;32145;50.390;30.778;2024-03-02T07:01:22;100620.84;;;2.06;71.92
46448;BME280;32145;50.390;30.778;2024-03-02T07:04:17;100612.88;;;2.14;71.52
46448;BME280;32145;50.390;30.778;2024-03-02T07:07:12;100605.72;;;2.23;71.47
46448;BME280;32145;50.390;30.778;2024-03-02T07:10:07;100612.28;;;2.29;71.22
46448;BME280;32145;50.390;30.778;2024-03-02T07:12:51;100612.28;;;2.37;70.64
46448;BME280;32145;50.390;30.778;2024-03-02T07:15:35;100604.31;;;2.45;70.28
46448;BME280;32145;50.390;30.778;2024-03-02T07:18:29;100602.03;;;2.59;70.36
46448;BME280;32145;50.390;30.778;2024-03-02T07:21:27;100605.38;;;2.69;69.66
46448;BME280;32145;50.390;30.778;2024-03-02T07:24:12;100602.72;;;2.78;69.65
46448;BME280;32145;50.390;30.778;2024-03-02T07:26:56;100602.06;;;2.84;69.15
46448;BME280;32145;50.390;30.778;2024-03-02T07:29:40;100606.78;;;2.90;69.16
46448;BME280;32145;50.390;30.778;2024-03-02T07:32:34;100608.78;;;2.96;69.01
46448;BME280;32145;50.390;30.778;2024-03-02T07:35:28;100601.44;;;3.07;68.54
46448;BME280;32145;50.390;30.778;2024-03-02T07:38:14;100600.25;;;3.18;68.56
46448;BME280;32145;50.390;30.778;2024-03-02T07:40:58;100601.59;;;3.30;68.38
46448;BME280;32145;50.390;30.778;2024-03-02T07:43:53;100604.78;;;3.42;68.19
46448;BME280;32145;50.390;30.778;2024-03-02T07:46:36;100605.13;;;3.47;67.43
46448;BME280;32145;50.390;30.778;2024-03-02T07:49:21;100588.00;;;3.57;67.25
46448;BME280;32145;50.390;30.778;2024-03-02T07:52:15;100593.34;;;3.65;66.72
46448;BME280;32145;50.390;30.778;2024-03-02T07:55:01;100596.03;;;3.73;66.68
46448;BME280;32145;50.390;30.778;2024-03-02T07:57:57;100586.97;;;3.83;66.45
46448;BME280;32145;50.390;30.778;2024-03-02T08:00:42;100586.09;;;3.91;65.64
46448;BME280;32145;50.390;30.778;2024-03-02T08:03:26;100589.97;;;3.88;65.29
46448;BME280;32145;50.390;30.778;2024-03-02T08:06:22;100584.25;;;3.91;65.09
46448;BME280;32145;50.390;30.778;2024-03-02T08:09:18;100574.81;;;4.04;65.05
46448;BME280;32145;50.390;30.778;2024-03-02T08:12:04;100575.97;;;4.09;64.91
46448;BME280;32145;50.390;30.778;2024-03-02T08:14:58;100582.50;;;4.15;64.39
46448;BME280;32145;50.390;30.778;2024-03-02T08:17:43;100574.75;;;4.20;64.23
46448;BME280;32145;50.390;30.778;2024-03-02T08:20:38;100574.38;;;4.32;64.06
46448;BME280;32145;50.390;30.778;2024-03-02T08:23:32;100568.63;;;4.43;64.07
46448;BME280;32145;50.390;30.778;2024-03-02T08:26:16;100572.41;;;4.57;63.89
46448;BME280;32145;50.390;30.778;2024-03-02T08:29:01;100570.56;;;4.58;63.31
46448;BME280;32145;50.390;30.778;2024-03-02T08:31:57;100571.22;;;4.60;63.30
46448;BME280;32145;50.390;30.778;2024-03-02T08:34:48;100573.56;;;4.63;62.92
46448;BME280;32145;50.390;30.778;2024-03-02T08:37:42;100569.31;;;4.69;62.65
46448;BME280;32145;50.390;30.778;2024-03-02T08:40:26;100569.72;;;4.81;62.81
46448;BME280;32145;50.390;30.778;2024-03-02T08:43:11;100566.63;;;4.92;62.27
46448;BME280;32145;50.390;30.778;2024-03-02T08:46:00;100566.63;;;4.92;61.93
46448;BME280;32145;50.390;30.778;2024-03-02T08:48:57;100566.28;;;4.95;61.44
46448;BME280;32145;50.390;30.778;2024-03-02T08:51:41;100567.94;;;4.96;61.25
46448;BME280;32145;50.390;30.778;2024-03-02T08:54:29;100571.47;;;4.97;61.29
46448;BME280;32145;50.390;30.778;2024-03-02T08:57:27;100572.63;;;5.02;61.12
46448;BME280;32145;50.390;30.778;2024-03-02T09:00:22;100571.19;;;5.15;61.14
46448;BME280;32145;50.390;30.778;2024-03-02T09:03:07;100561.72;;;5.19;60.97
46448;BME280;32145;50.390;30.778;2024-03-02T09:05:58;100559.72;;;5.21;60.65
46448;BME280;32145;50.390;30.778;2024-03-02T09:08:41;100555.47;;;5.27;60.88
46448;BME280;32145;50.390;30.778;2024-03-02T09:11:32;100562.88;;;5.40;60.58
46448;BME280;32145;50.390;30.778;2024-03-02T09:14:26;100563.84;;;5.47;59.84
46448;BME280;32145;50.390;30.778;2024-03-02T09:17:10;100556.53;;;5.56;59.93
46448;BME280;32145;50.390;30.778;2024-03-02T09:20:07;100562.00;;;5.63;59.39
46448;BME280;32145;50.390;30.778;2024-03-02T09:22:51;100553.13;;;5.77;59.62
46448;BME280;32145;50.390;30.778;2024-03-02T09:25:48;100557.38;;;5.87;58.50
46448;BME280;32145;50.390;30.778;2024-03-02T09:28:32;100552.81;;;6.02;58.95
46448;BME280;32145;50.390;30.778;2024-03-02T09:31:26;100550.31;;;6.16;58.13
46448;BME280;32145;50.390;30.778;2024-03-02T09:34:21;100548.56;;;6.23;58.09
46448;BME280;32145;50.390;30.778;2024-03-02T09:37:16;100549.84;;;6.27;57.01
46448;BME280;32145;50.390;30.778;2024-03-02T09:40:00;100544.22;;;6.22;57.15
46448;BME280;32145;50.390;30.778;2024-03-02T09:42:45;100547.00;;;6.14;57.59
46448;BME280;32145;50.390;30.778;2024-03-02T09:45:41;100548.66;;;6.00;57.28
46448;BME280;32145;50.390;30.778;2024-03-02T09:48:26;100548.38;;;5.79;57.89
46448;BME280;32145;50.390;30.778;2024-03-02T09:51:20;100541.06;;;5.73;57.99
46448;BME280;32145;50.390;30.778;2024-03-02T09:54:16;100544.75;;;5.72;58.10
46448;BME280;32145;50.390;30.778;2024-03-02T09:57:07;100539.84;;;5.76;58.25
46448;BME280;32145;50.390;30.778;2024-03-02T09:59:51;100545.78;;;5.86;58.31
46448;BME280;32145;50.390;30.778;2024-03-02T10:02:47;100528.03;;;5.92;58.27
46448;BME280;32145;50.390;30.778;2024-03-02T10:05:31;100534.34;;;5.99;58.56
46448;BME280;32145;50.390;30.778;2024-03-02T10:08:15;100541.78;;;5.97;57.77
46448;BME280;32145;50.390;30.778;2024-03-02T10:11:25;100536.69;;;5.87;56.46
46448;BME280;32145;50.390;30.778;2024-03-02T10:14:12;100542.00;;;5.80;57.08
46448;BME280;32145;50.390;30.778;2024-03-02T10:17:02;100538.91;;;5.84;56.93
46448;BME280;32145;50.390;30.778;2024-03-02T10:19:46;100531.31;;;5.87;57.40
46448;BME280;32145;50.390;30.778;2024-03-02T10:22:40;100535.22;;;5.85;56.79
46448;BME280;32145;50.390;30.778;2024-03-02T10:25:34;100527.88;;;5.78;57.56
46448;BME280;32145;50.390;30.778;2024-03-02T10:28:30;100521.84;;;5.76;57.55
46448;BME280;32145;50.390;30.778;2024-03-02T10:31:14;100525.84;;;5.80;57.86
46448;BME280;32145;50.390;30.778;2024-03-02T10:33:59;100528.25;;;5.90;57.20
46448;BME280;32145;50.390;30.778;2024-03-02T10:36:44;100521.22;;;6.04;57.27
46448;BME280;32145;50.390;30.778;2024-03-02T10:39:38;100522.41;;;6.17;56.84
46448;BME280;32145;50.390;30.778;2024-03-02T10:42:33;100525.16;;;6.24;55.94
46448;BME280;32145;50.390;30.778;2024-03-02T10:45:29;100522.63;;;6.37;56.07
46448;BME280;32145;50.390;30.778;2024-03-02T10:48:14;100519.44;;;6.49;55.86
46448;BME280;32145;50.390;30.778;2024-03-02T10:50:58;100518.03;;;6.53;55.39
46448;BME280;32145;50.390;30.778;2024-03-02T10:53:55;100514.84;;;6.64;55.20
46448;BME280;32145;50.390;30.778;2024-03-02T10:56:40;100516.59;;;6.72;55.48
46448;BME280;32145;50.390;30.778;2024-03-02T10:59:27;100509.19;;;6.81;55.39
46448;BME280;32145;50.390;30.778;2024-03-02T11:02:25;100511.41;;;6.99;55.06
46448;BME280;32145;50.390;30.778;2024-03-02T11:05:11;100504.19;;;7.00;54.80
46448;BME280;32145;50.390;30.778;2024-03-02T11:08:00;100512.69;;;7.03;54.45
46448;BME280;32145;50.390;30.778;2024-03-02T11:10:58;100506.16;;;7.13;54.58
46448;BME280;32145;50.390;30.778;2024-03-02T11:13:46;100518.16;;;7.10;54.31
46448;BME280;32145;50.390;30.778;2024-03-02T11:16:34;100516.66;;;7.07;54.57
46448;BME280;32145;50.390;30.778;2024-03-02T11:19:20;100511.09;;;7.09;54.99
46448;BME280;32145;50.390;30.778;2024-03-02T11:22:16;100510.75;;;7.19;54.26
46448;BME280;32145;50.390;30.778;2024-03-02T11:25:00;100509.13;;;7.25;54.02
46448;BME280;32145;50.390;30.778;2024-03-02T11:28:02;100510.69;;;7.12;53.95
46448;BME280;32145;50.390;30.778;2024-03-02T11:30:53;100498.97;;;6.98;54.60
46448;BME280;32145;50.390;30.778;2024-03-02T11:33:50;100503.41;;;6.84;54.86
46448;BME280;32145;50.390;30.778;2024-03-02T11:36:48;100504.53;;;6.68;55.63
46448;BME280;32145;50.390;30.778;2024-03-02T11:39:34;100505.66;;;6.58;56.11
46448;BME280;32145;50.390;30.778;2024-03-02T11:42:18;100499.84;;;6.55;55.85
46448;BME280;32145;50.390;30.778;2024-03-02T11:45:08;100486.50;;;6.47;56.05
46448;BME280;32145;50.390;30.778;2024-03-02T11:47:54;100495.56;;;6.45;56.46
46448;BME280;32145;50.390;30.778;2024-03-02T11:50:41;100493.78;;;6.53;56.30
46448;BME280;32145;50.390;30.778;2024-03-02T11:53:38;100491.56;;;6.56;56.18
46448;BME280;32145;50.390;30.778;2024-03-02T11:56:24;100486.31;;;6.48;56.67
46448;BME280;32145;50.390;30.778;2024-03-02T11:59:09;100490.59;;;6.42;56.69
46448;BME280;32145;50.390;30.778;2024-03-02T12:02:04;100490.13;;;6.39;56.65
46448;BME280;32145;50.390;30.778;2024-03-02T12:04:49;100487.25;;;6.40;56.25
46448;BME280;32145;50.390;30.778;2024-03-02T12:07:43;100485.66;;;6.46;56.63
46448;BME280;32145;50.390;30.778;2024-03-02T12:10:31;100481.16;;;6.53;56.27
46448;BME280;32145;50.390;30.778;2024-03-02T12:13:15;100482.06;;;6.61;56.36
46448;BME280;32145;50.390;30.778;2024-03-02T12:16:09;100481.66;;;6.64;56.58
46448;BME280;32145;50.390;30.778;2024-03-02T12:19:03;100474.28;;;6.73;56.54
46448;BME280;32145;50.390;30.778;2024-03-02T12:21:48;100480.72;;;6.72;56.18
46448;BME280;32145;50.390;30.778;2024-03-02T12:24:44;100483.03;;;6.75;56.55
46448;BME280;32145;50.390;30.778;2024-03-02T12:27:30;100481.16;;;6.75;56.56
46448;BME280;32145;50.390;30.778;2024-03-02T12:30:14;100475.75;;;6.75;56.85
46448;BME280;32145;50.390;30.778;2024-03-02T12:33:06;100481.66;;;6.86;56.44
46448;BME280;32145;50.390;30.778;2024-03-02T12:35:50;100476.66;;;7.04;56.27
46448;BME280;32145;50.390;30.778;2024-03-02T12:38:35;100472.47;;;7.02;55.77
46448;BME280;32145;50.390;30.778;2024-03-02T12:41:19;100472.53;;;7.08;55.75
46448;BME280;32145;50.390;30.778;2024-03-02T12:44:06;100474.13;;;7.31;55.49
46448;BME280;32145;50.390;30.778;2024-03-02T12:47:00;100469.41;;;7.40;55.43
46448;BME280;32145;50.390;30.778;2024-03-02T12:49:44;100458.47;;;7.48;55.04
46448;BME280;32145;50.390;30.778;2024-03-02T12:52:38;100464.00;;;7.40;55.19
46448;BME280;32145;50.390;30.778;2024-03-02T12:55:23;100464.75;;;7.27;54.81
46448;BME280;32145;50.390;30.778;2024-03-02T12:58:08;100466.75;;;7.12;55.33
46448;BME280;32145;50.390;30.778;2024-03-02T13:01:09;100460.81;;;6.94;55.44
46448;BME280;32145;50.390;30.778;2024-03-02T13:03:54;100467.28;;;6.78;55.83
46448;BME280;32145;50.390;30.778;2024-03-02T13:06:51;100469.09;;;6.71;55.99
46448;BME280;32145;50.390;30.778;2024-03-02T13:09:36;100459.66;;;6.60;55.94
46448;BME280;32145;50.390;30.778;2024-03-02T13:12:21;100461.28;;;6.54;55.13
46448;BME280;32145;50.390;30.778;2024-03-02T13:15:12;100458.31;;;6.49;54.96
46448;BME280;32145;50.390;30.778;2024-03-02T13:18:08;100458.47;;;6.41;55.79
46448;BME280;32145;50.390;30.778;2024-03-02T13:20:52;100464.41;;;6.36;56.02
46448;BME280;32145;50.390;30.778;2024-03-02T13:23:43;100460.00;;;6.28;55.79
46448;BME280;32145;50.390;30.778;2024-03-02T13:26:37;100452.66;;;6.22;56.38
46448;BME280;32145;50.390;30.778;2024-03-02T13:29:31;100460.75;;;6.22;56.75
46448;BME280;32145;50.390;30.778;2024-03-02T13:32:25;100457.13;;;6.15;56.79
46448;BME280;32145;50.390;30.778;2024-03-02T13:35:21;100458.34;;;6.12;57.90
46448;BME280;32145;50.390;30.778;2024-03-02T13:38:16;100456.22;;;6.08;57.85
46448;BME280;32145;50.390;30.778;2024-03-02T13:41:10;100454.56;;;6.06;57.82
46448;BME280;32145;50.390;30.778;2024-03-02T13:44:04;100448.25;;;6.14;57.27
46448;BME280;32145;50.390;30.778;2024-03-02T13:47:00;100456.50;;;6.35;56.98
46448;BME280;32145;50.390;30.778;2024-03-02T13:49:54;100445.81;;;6.41;56.67
46448;BME280;32145;50.390;30.778;2024-03-02T13:52:50;100446.00;;;6.62;56.16
46448;BME280;32145;50.390;30.778;2024-03-02T13:55:44;100444.47;;;6.74;55.41
46448;BME280;32145;50.390;30.778;2024-03-02T13:58:39;100449.47;;;6.77;55.53
46448;BME280;32145;50.390;30.778;2024-03-02T14:01:33;100447.81;;;6.76;55.47
46448;BME280;32145;50.390;30.778;2024-03-02T14:04:30;100443.56;;;6.67;55.83
46448;BME280;32145;50.390;30.778;2024-03-02T14:07:26;100437.59;;;6.72;56.11
46448;BME280;32145;50.390;30.778;2024-03-02T14:10:24;100441.66;;;6.89;56.22
46448;BME280;32145;50.390;30.778;2024-03-02T14:13:20;100444.69;;;7.01;56.70
46448;BME280;32145;50.390;30.778;2024-03-02T14:16:14;100438.81;;;6.97;56.57
46448;BME280;32145;50.390;30.778;2024-03-02T14:19:09;100438.19;;;6.95;56.59
46448;BME280;32145;50.390;30.778;2024-03-02T14:22:04;100449.56;;;6.91;56.00
46448;BME280;32145;50.390;30.778;2024-03-02T14:25:00;100441.38;;;6.77;56.88
46448;BME280;32145;50.390;30.778;2024-03-02T14:27:57;100441.13;;;6.72;57.66
46448;BME280;32145;50.390;30.778;2024-03-02T14:30:54;100447.81;;;6.76;56.99
46448;BME280;32145;50.390;30.778;2024-03-02T14:33:50;100444.06;;;6.77;56.89
46448;BME280;32145;50.390;30.778;2024-03-02T14:36:47;100436.13;;;6.69;56.83
46448;BME280;32145;50.390;30.778;2024-03-02T14:39:43;100435.84;;;6.64;56.45
46448;BME280;32145;50.390;30.778;2024-03-02T14:42:40;100443.75;;;6.65;56.35
46448;BME280;32145;50.390;30.778;2024-03-02T14:45:38;100441.47;;;6.62;55.99
46448;BME280;32145;50.390;30.778;2024-03-02T14:48:34;100435.63;;;6.58;56.31
46448;BME280;32145;50.390;30.778;2024-03-02T14:51:30;100438.25;;;6.52;56.44
46448;BME280;32145;50.390;30.778;2024-03-02T14:54:26;100431.53;;;6.41;56.89
46448;BME280;32145;50.390;30.778;2024-03-02T14:57:23;100433.06;;;6.28;56.57
46448;BME280;32145;50.390;30.778;2024-03-02T15:00:19;100428.56;;;6.14;57.09
46448;BME280;32145;50.390;30.778;2024-03-02T15:03:17;100429.19;;;6.01;57.65